Time;durP1;ratioP1;P1;durP2;ratioP2;P2;SDS_P1;SDS_P2;PMS_P1;PMS_P2;Temp;Humidity;BMP_temperature;BMP_pressure;BME280_temperature;BME280_humidity;BME280_pressure;Samples;Min_cycle;Max_cycle;Signal;HPM_P1;HPM_P2
2024/01/28 00:01:57;;;;;;;14.93;5.07;;;0.60;99.90;;;;;;5039408;28;20026;-72
2024/01/28 00:04:25;;;;;;;8.05;3.92;;;0.50;99.90;;;;;;5036757;28;20028;-72
2024/01/28 00:06:51;;;;;;;7.15;4.05;;;0.50;99.90;;;;;;5035648;28;20088;-72
2024/01/28 00:09:17;;;;;;;10.63;3.22;;;0.50;99.90;;;;;;5017418;28;20037;-72
2024/01/28 00:11:43;;;;;;;8.90;3.53;;;0.50;99.90;;;;;;5030855;28;20026;-72
2024/01/28 00:14:09;;;;;;;10.55;5.20;;;0.50;99.90;;;;;;5011184;28;20025;-73
2024/01/28 00:16:35;;;;;;;6.95;3.63;;;0.40;99.90;;;;;;5013059;28;20022;-72
2024/01/28 00:19:01;;;;;;;10.48;5.10;;;0.40;99.90;;;;;;5024941;28;20382;-72
2024/01/28 00:21:28;;;;;;;4.65;2.70;;;0.30;99.90;;;;;;5028232;28;20030;-72
2024/01/28 00:23:54;;;;;;;8.55;4.38;;;0.30;99.90;;;;;;5008136;28;20029;-72
2024/01/28 00:26:20;;;;;;;8.23;4.10;;;0.30;99.90;;;;;;5028359;28;20791;-72
2024/01/28 00:28:46;;;;;;;5.68;2.78;;;0.30;99.90;;;;;;5030382;28;20061;-72
2024/01/28 00:31:12;;;;;;;7.05;3.83;;;0.30;99.90;;;;;;5031394;28;20055;-72
2024/01/28 00:33:38;;;;;;;7.82;3.92;;;0.30;99.90;;;;;;5028293;28;20033;-72
2024/01/28 00:36:05;;;;;;;6.45;3.17;;;0.30;99.90;;;;;;4997967;28;20077;-72
2024/01/28 00:38:32;;;;;;;6.68;4.53;;;0.20;99.90;;;;;;5012360;28;20502;-71
2024/01/28 00:40:59;;;;;;;3.53;2.65;;;0.20;99.90;;;;;;5031631;28;20037;-72
2024/01/28 00:43:25;;;;;;;7.82;4.25;;;0.20;99.90;;;;;;5030727;28;20077;-71
2024/01/28 00:45:51;;;;;;;4.38;3.45;;;0.20;99.90;;;;;;5031184;28;20024;-71
2024/01/28 00:48:16;;;;;;;3.00;2.05;;;0.10;99.90;;;;;;5031863;28;20079;-71
2024/01/28 00:50:43;;;;;;;3.88;2.00;;;0.10;99.90;;;;;;5032491;28;20151;-71
2024/01/28 00:53:09;;;;;;;11.13;3.53;;;0.10;99.90;;;;;;5031023;28;20033;-72
2024/01/28 00:55:35;;;;;;;4.10;2.53;;;0.10;99.90;;;;;;5030706;28;20033;-72
2024/01/28 00:58:02;;;;;;;6.55;2.70;;;0.00;99.90;;;;;;5031802;28;20104;-71
2024/01/28 01:00:28;;;;;;;6.18;3.67;;;0.00;99.90;;;;;;5032439;28;20109;-71
2024/01/28 01:02:54;;;;;;;4.57;3.15;;;0.00;99.90;;;;;;5046360;28;20026;-71
2024/01/28 01:05:20;;;;;;;3.45;2.40;;;0.00;99.90;;;;;;5030682;28;20120;-71
2024/01/28 01:07:46;;;;;;;5.50;3.88;;;0.00;99.90;;;;;;5031096;28;20394;-71
2024/01/28 01:10:11;;;;;;;6.25;3.83;;;0.00;99.90;;;;;;5030675;28;20029;-71
2024/01/28 01:12:37;;;;;;;8.85;3.75;;;0.00;99.90;;;;;;5029807;28;20032;-71
2024/01/28 01:15:04;;;;;;;3.67;2.95;;;0.00;99.90;;;;;;5031833;28;20029;-71
2024/01/28 01:17:29;;;;;;;9.02;2.88;;;0.00;99.90;;;;;;5030897;28;20040;-71
2024/01/28 01:19:55;;;;;;;6.82;3.47;;;-0.10;99.90;;;;;;5030517;28;20021;-71
2024/01/28 01:22:21;;;;;;;4.82;2.75;;;-0.20;99.90;;;;;;5029716;28;20031;-71
2024/01/28 01:24:47;;;;;;;10.48;3.33;;;-0.20;99.90;;;;;;5031826;28;20029;-71
2024/01/28 01:27:13;;;;;;;8.20;3.15;;;-0.20;99.90;;;;;;5030763;28;20428;-71
2024/01/28 01:29:39;;;;;;;3.40;2.38;;;-0.20;99.90;;;;;;5028339;28;20556;-71
2024/01/28 01:32:05;;;;;;;8.75;4.63;;;-0.20;99.90;;;;;;5030419;28;20037;-71
2024/01/28 01:34:30;;;;;;;5.50;3.03;;;-0.20;99.90;;;;;;5031051;28;20112;-71
2024/01/28 01:36:56;;;;;;;6.22;3.53;;;-0.20;99.90;;;;;;5031819;28;20113;-71
2024/01/28 01:39:22;;;;;;;10.70;4.13;;;-0.20;99.90;;;;;;5026056;28;20099;-71
2024/01/28 01:41:47;;;;;;;6.45;3.40;;;-0.10;99.90;;;;;;5029090;28;20431;-72
2024/01/28 01:44:13;;;;;;;11.32;3.13;;;-0.10;99.90;;;;;;5030929;28;20060;-72
2024/01/28 01:46:42;;;;;;;10.27;3.97;;;-0.10;99.90;;;;;;5031632;28;20026;-71
2024/01/28 01:49:09;;;;;;;18.92;3.88;;;-0.10;99.90;;;;;;5026307;28;20446;-72
2024/01/28 01:51:35;;;;;;;6.13;3.97;;;-0.10;99.90;;;;;;5030222;28;20386;-71
2024/01/28 01:54:02;;;;;;;5.57;3.67;;;-0.10;99.90;;;;;;5029485;28;20044;-71
2024/01/28 01:56:30;;;;;;;5.15;2.28;;;-0.10;99.90;;;;;;5030312;28;20025;-71
2024/01/28 01:58:57;;;;;;;10.40;5.65;;;-0.10;99.90;;;;;;5024524;28;20416;-71
2024/01/28 02:01:26;;;;;;;7.32;4.15;;;-0.10;99.90;;;;;;5030300;28;20021;-71
2024/01/28 02:03:55;;;;;;;5.60;3.15;;;-0.10;99.90;;;;;;5026460;28;20489;-72
2024/01/28 02:06:21;;;;;;;6.63;3.95;;;-0.10;99.90;;;;;;5025425;28;20061;-72
2024/01/28 02:08:46;;;;;;;3.78;2.35;;;-0.10;99.90;;;;;;5029086;28;20110;-72
2024/01/28 02:11:12;;;;;;;6.55;3.13;;;-0.10;99.90;;;;;;5031216;28;20029;-72
2024/01/28 02:13:38;;;;;;;6.80;4.30;;;-0.10;99.90;;;;;;5027691;28;20196;-72
2024/01/28 02:16:04;;;;;;;13.32;4.30;;;-0.10;99.90;;;;;;5031318;28;20045;-72
2024/01/28 02:18:30;;;;;;;9.20;3.55;;;0.00;99.90;;;;;;5030275;28;20148;-72
2024/01/28 02:20:56;;;;;;;8.70;4.45;;;-0.10;99.90;;;;;;5026992;28;20096;-72
2024/01/28 02:23:22;;;;;;;5.88;3.78;;;-0.10;99.90;;;;;;5024694;28;20099;-72
2024/01/28 02:25:49;;;;;;;3.28;2.40;;;-0.10;99.90;;;;;;5029826;28;20589;-72
2024/01/28 02:28:16;;;;;;;9.88;3.35;;;-0.10;99.90;;;;;;5026816;28;20486;-72
2024/01/28 02:30:42;;;;;;;5.55;2.70;;;-0.10;99.90;;;;;;5029741;28;20385;-72
2024/01/28 02:33:08;;;;;;;5.78;2.42;;;-0.20;99.90;;;;;;5025568;28;20112;-72
2024/01/28 02:35:34;;;;;;;9.02;3.33;;;-0.20;99.90;;;;;;5030313;28;20112;-72
2024/01/28 02:37:59;;;;;;;6.03;2.97;;;-0.10;99.90;;;;;;5027247;28;20100;-72
2024/01/28 02:40:25;;;;;;;13.07;2.55;;;-0.20;99.90;;;;;;5027672;28;20105;-72
2024/01/28 02:42:51;;;;;;;4.90;2.58;;;-0.30;99.90;;;;;;5028248;28;20508;-72
2024/01/28 02:45:18;;;;;;;12.20;4.38;;;-0.30;99.90;;;;;;5031612;28;20029;-72
2024/01/28 02:47:44;;;;;;;6.88;3.33;;;-0.30;99.90;;;;;;5030048;28;20029;-72
2024/01/28 02:50:09;;;;;;;7.45;3.83;;;-0.20;99.90;;;;;;5029898;28;20029;-72
2024/01/28 02:52:35;;;;;;;7.45;4.35;;;-0.20;99.90;;;;;;5026169;28;20069;-72
2024/01/28 02:55:01;;;;;;;9.95;4.13;;;-0.20;99.90;;;;;;5029302;28;20036;-72
2024/01/28 02:57:27;;;;;;;7.18;3.75;;;-0.20;99.90;;;;;;5030041;28;20120;-72
2024/01/28 02:59:52;;;;;;;19.00;4.55;;;-0.20;99.90;;;;;;5033015;28;20437;-72
2024/01/28 03:02:18;;;;;;;11.35;3.72;;;-0.20;99.90;;;;;;5033856;28;20052;-72
2024/01/28 03:04:44;;;;;;;4.50;2.95;;;-0.10;99.90;;;;;;5032874;28;20036;-72
2024/01/28 03:07:11;;;;;;;5.20;3.30;;;-0.20;99.90;;;;;;5029789;28;20545;-72
2024/01/28 03:09:36;;;;;;;12.23;3.60;;;-0.20;99.90;;;;;;5031933;28;20033;-72
2024/01/28 03:12:03;;;;;;;7.82;3.08;;;-0.10;99.90;;;;;;5016351;28;20109;-72
2024/01/28 03:14:28;;;;;;;4.57;3.13;;;-0.20;99.90;;;;;;5028141;28;20513;-72
2024/01/28 03:16:54;;;;;;;5.40;2.92;;;-0.10;99.90;;;;;;5032481;28;20030;-72
2024/01/28 03:19:20;;;;;;;9.45;4.68;;;-0.10;99.90;;;;;;5028857;28;20038;-72
2024/01/28 03:21:45;;;;;;;6.47;2.95;;;-0.10;99.90;;;;;;5032743;28;20481;-72
2024/01/28 03:24:11;;;;;;;2.15;1.77;;;-0.10;99.90;;;;;;5032397;28;20477;-72
2024/01/28 03:26:37;;;;;;;7.20;3.17;;;-0.10;99.90;;;;;;5032768;28;20060;-72
2024/01/28 03:29:07;;;;;;;4.70;2.80;;;-0.10;99.90;;;;;;5030851;28;20448;-72
2024/01/28 03:31:33;;;;;;;4.53;2.55;;;-0.10;99.90;;;;;;5029339;28;20022;-72
2024/01/28 03:33:59;;;;;;;9.98;3.08;;;-0.20;99.90;;;;;;5032731;28;20125;-72
2024/01/28 03:36:25;;;;;;;7.88;3.38;;;-0.20;99.90;;;;;;5034177;28;20131;-72
2024/01/28 03:38:50;;;;;;;7.13;3.20;;;-0.20;99.90;;;;;;5012156;28;20034;-72
2024/01/28 03:41:16;;;;;;;15.52;4.97;;;-0.20;99.90;;;;;;5033604;28;20036;-72
2024/01/28 03:43:42;;;;;;;14.18;3.78;;;-0.20;99.90;;;;;;5031300;28;20048;-72
2024/01/28 03:46:09;;;;;;;11.02;3.50;;;-0.30;99.90;;;;;;5033777;28;20017;-72
2024/01/28 03:48:35;;;;;;;8.20;3.20;;;-0.30;99.90;;;;;;5026116;28;20112;-72
2024/01/28 03:51:02;;;;;;;6.43;4.78;;;-0.40;99.90;;;;;;5032534;28;20029;-72
2024/01/28 03:53:28;;;;;;;7.85;3.63;;;-0.50;99.90;;;;;;5027567;28;20056;-72
2024/01/28 03:55:53;;;;;;;9.18;3.88;;;-0.60;99.90;;;;;;5015687;28;20116;-71
2024/01/28 03:58:19;;;;;;;6.38;3.53;;;-0.60;99.90;;;;;;5027874;28;20052;-72
2024/01/28 04:00:45;;;;;;;6.03;3.20;;;-0.60;99.90;;;;;;5032294;28;20034;-71
2024/01/28 04:03:11;;;;;;;4.72;2.75;;;-0.60;99.90;;;;;;5031336;28;20028;-71
2024/01/28 04:05:37;;;;;;;5.30;3.67;;;-0.70;99.90;;;;;;5032703;28;20028;-72
2024/01/28 04:08:03;;;;;;;4.95;2.67;;;-0.70;99.90;;;;;;5032538;28;20127;-72
2024/01/28 04:10:28;;;;;;;8.05;3.35;;;-0.70;99.90;;;;;;5033421;28;20116;-72
2024/01/28 04:12:54;;;;;;;9.18;3.30;;;-0.80;99.90;;;;;;5031198;28;20133;-72
2024/01/28 04:15:20;;;;;;;10.32;4.30;;;-0.80;99.90;;;;;;5031666;28;20061;-72
2024/01/28 04:17:46;;;;;;;6.30;3.33;;;-0.80;99.90;;;;;;5031257;28;20044;-72
2024/01/28 04:20:12;;;;;;;5.18;3.78;;;-0.90;99.90;;;;;;5032924;28;20021;-72
2024/01/28 04:22:39;;;;;;;4.97;3.08;;;-0.90;99.90;;;;;;5030389;28;20059;-71
2024/01/28 04:25:05;;;;;;;5.90;3.10;;;-0.90;99.90;;;;;;5031257;28;20116;-72
2024/01/28 04:27:31;;;;;;;4.82;4.10;;;-1.00;99.90;;;;;;5031689;28;20026;-72
2024/01/28 04:29:56;;;;;;;5.10;2.75;;;-1.00;99.90;;;;;;5019816;28;20028;-71
2024/01/28 04:32:22;;;;;;;5.57;3.40;;;-1.00;99.90;;;;;;5030035;28;20017;-72
2024/01/28 04:34:48;;;;;;;6.38;2.95;;;-1.00;99.90;;;;;;5032448;28;20037;-72
2024/01/28 04:37:13;;;;;;;4.97;3.03;;;-1.00;99.90;;;;;;5031291;28;20029;-72
2024/01/28 04:39:39;;;;;;;5.82;3.30;;;-1.00;99.90;;;;;;5031895;28;20482;-72
2024/01/28 04:42:06;;;;;;;4.13;2.75;;;-1.00;99.90;;;;;;5032152;28;20025;-72
2024/01/28 04:44:31;;;;;;;5.82;3.20;;;-1.10;99.90;;;;;;5031809;28;20017;-73
2024/01/28 04:46:57;;;;;;;16.95;3.47;;;-1.10;99.90;;;;;;5031189;28;20500;-72
2024/01/28 04:49:24;;;;;;;6.70;3.22;;;-1.10;99.90;;;;;;5031996;28;20044;-72
2024/01/28 04:51:50;;;;;;;4.32;3.00;;;-1.00;99.90;;;;;;5031811;28;20025;-72
2024/01/28 04:54:17;;;;;;;5.25;3.72;;;-1.00;99.90;;;;;;5010357;28;20037;-72
2024/01/28 04:56:44;;;;;;;3.95;3.03;;;-1.00;99.90;;;;;;5030853;28;20021;-72
2024/01/28 04:59:10;;;;;;;4.63;3.33;;;-1.00;99.90;;;;;;5030043;28;20036;-72
2024/01/28 05:01:38;;;;;;;9.13;3.78;;;-1.10;99.90;;;;;;5030722;28;20033;-72
2024/01/28 05:04:04;;;;;;;12.57;2.90;;;-1.00;99.90;;;;;;5031204;28;20378;-72
2024/01/28 05:06:39;;;;;;;5.18;3.45;;;-1.10;99.90;;;;;;5031780;28;20484;-73
2024/01/28 05:09:09;;;;;;;5.53;2.90;;;-1.20;99.90;;;;;;5011787;28;20129;-72
2024/01/28 05:11:35;;;;;;;4.28;2.70;;;-1.20;99.90;;;;;;5027801;28;20382;-72
2024/01/28 05:14:01;;;;;;;6.82;3.25;;;-1.20;99.90;;;;;;5028125;28;20049;-72
2024/01/28 05:16:27;;;;;;;24.95;4.60;;;-1.10;99.90;;;;;;5030945;28;20129;-72
2024/01/28 05:18:53;;;;;;;3.38;1.92;;;-1.00;99.90;;;;;;5031152;28;20029;-72
2024/01/28 05:21:19;;;;;;;10.05;3.85;;;-1.00;99.90;;;;;;5014026;28;20032;-72
2024/01/28 05:23:48;;;;;;;25.73;3.65;;;-1.00;99.90;;;;;;5027477;28;20640;-72
2024/01/28 05:26:15;;;;;;;4.53;3.33;;;-1.00;99.90;;;;;;5026950;28;20049;-72
2024/01/28 05:28:41;;;;;;;5.70;2.42;;;-1.00;99.90;;;;;;5027954;28;20040;-72
2024/01/28 05:31:08;;;;;;;7.50;2.75;;;-1.00;99.90;;;;;;5027091;28;20036;-72
2024/01/28 05:33:37;;;;;;;1.85;1.67;;;-1.00;99.90;;;;;;5010093;28;20059;-73
2024/01/28 05:36:13;;;;;;;6.57;3.38;;;-1.00;99.90;;;;;;5030398;28;20044;-72
2024/01/28 05:38:39;;;;;;;3.38;2.40;;;-1.00;99.90;;;;;;5028071;28;20045;-72
2024/01/28 05:41:07;;;;;;;7.72;4.03;;;-1.00;99.90;;;;;;5030486;28;20025;-72
2024/01/28 05:43:33;;;;;;;3.20;2.17;;;-1.10;99.90;;;;;;5029480;28;20045;-72
2024/01/28 05:46:00;;;;;;;4.25;3.83;;;-1.10;99.90;;;;;;5023562;28;20137;-72
2024/01/28 05:48:26;;;;;;;7.40;3.63;;;-1.10;99.90;;;;;;5030447;28;20052;-72
2024/01/28 05:50:54;;;;;;;10.45;4.38;;;-1.10;99.90;;;;;;5029346;28;20026;-72
2024/01/28 05:53:20;;;;;;;7.43;2.95;;;-1.20;99.90;;;;;;5030722;28;20113;-72
2024/01/28 05:55:46;;;;;;;6.07;3.92;;;-1.20;99.90;;;;;;5031389;28;20104;-72
2024/01/28 05:58:11;;;;;;;7.60;2.97;;;-1.20;99.90;;;;;;5030257;28;20029;-72
2024/01/28 06:00:37;;;;;;;5.45;1.73;;;-1.20;99.90;;;;;;5031301;28;20097;-72
2024/01/28 06:03:06;;;;;;;7.20;2.97;;;-1.30;99.90;;;;;;5009143;28;20427;-72
2024/01/28 06:05:32;;;;;;;8.88;4.60;;;-1.40;99.90;;;;;;5030308;28;20029;-70
2024/01/28 06:07:58;;;;;;;5.18;2.55;;;-1.40;99.90;;;;;;5024718;28;20051;-73
2024/01/28 06:10:24;;;;;;;3.75;2.17;;;-1.30;99.90;;;;;;5016839;28;20033;-71
2024/01/28 06:12:49;;;;;;;4.28;2.17;;;-1.30;99.90;;;;;;5033933;28;20044;-72
2024/01/28 06:15:15;;;;;;;7.85;3.40;;;-1.30;99.90;;;;;;5031304;28;20053;-72
2024/01/28 06:17:41;;;;;;;6.03;2.92;;;-1.40;99.90;;;;;;5033425;28;20128;-72
2024/01/28 06:20:08;;;;;;;4.03;2.20;;;-1.40;99.90;;;;;;5034305;28;20030;-72
2024/01/28 06:22:34;;;;;;;5.57;3.33;;;-1.40;99.90;;;;;;5033398;28;20028;-71
2024/01/28 06:25:01;;;;;;;3.47;2.70;;;-1.40;99.90;;;;;;5035032;28;20022;-71
2024/01/28 06:27:27;;;;;;;4.53;2.55;;;-1.50;99.90;;;;;;5032039;28;20494;-72
2024/01/28 06:29:54;;;;;;;5.45;3.00;;;-1.50;99.90;;;;;;5034825;28;20469;-72
2024/01/28 06:32:22;;;;;;;7.00;2.55;;;-1.50;99.90;;;;;;5035352;28;20040;-72
2024/01/28 06:34:48;;;;;;;5.40;2.03;;;-1.50;99.90;;;;;;5037249;28;20026;-71
2024/01/28 06:37:14;;;;;;;10.77;4.00;;;-1.50;99.90;;;;;;5035892;28;20028;-72
2024/01/28 06:39:40;;;;;;;6.93;3.33;;;-1.50;99.90;;;;;;5034960;28;20025;-72
2024/01/28 06:42:06;;;;;;;5.68;2.20;;;-1.60;99.90;;;;;;5037615;28;20013;-72
2024/01/28 06:44:33;;;;;;;5.75;2.58;;;-1.60;99.90;;;;;;5038598;28;20021;-71
2024/01/28 06:46:59;;;;;;;11.27;3.22;;;-1.50;99.90;;;;;;5036167;28;20111;-72
2024/01/28 06:49:25;;;;;;;3.20;2.13;;;-1.50;99.90;;;;;;5040850;28;20108;-73
2024/01/28 06:51:52;;;;;;;9.40;3.42;;;-1.50;99.90;;;;;;5033440;28;20044;-72
2024/01/28 06:54:19;;;;;;;4.40;3.15;;;-1.60;99.90;;;;;;5033999;28;20026;-72
2024/01/28 06:56:45;;;;;;;11.05;3.13;;;-1.60;99.90;;;;;;5033343;28;20516;-72
2024/01/28 06:59:11;;;;;;;3.55;2.80;;;-1.60;99.90;;;;;;5043034;28;20029;-72
2024/01/28 07:01:37;;;;;;;9.90;2.75;;;-1.70;99.90;;;;;;5035961;28;20026;-72
2024/01/28 07:04:03;;;;;;;10.85;3.53;;;-1.70;99.90;;;;;;5039391;28;20025;-72
2024/01/28 07:06:28;;;;;;;6.35;3.17;;;-1.70;99.90;;;;;;5030827;28;20133;-72
2024/01/28 07:08:54;;;;;;;10.10;2.80;;;-1.70;99.90;;;;;;5038264;28;20117;-71
2024/01/28 07:11:21;;;;;;;7.82;2.85;;;-1.60;99.90;;;;;;5027855;28;20022;-71
2024/01/28 07:13:47;;;;;;;4.50;2.63;;;-1.60;99.90;;;;;;5033650;28;20083;-72
2024/01/28 07:16:13;;;;;;;12.10;2.25;;;-1.50;99.90;;;;;;5032716;28;20428;-71
2024/01/28 07:18:39;;;;;;;8.13;2.72;;;-1.50;99.90;;;;;;5033097;28;20061;-71
2024/01/28 07:21:05;;;;;;;7.07;3.08;;;-1.50;99.90;;;;;;5027677;28;20030;-71
2024/01/28 07:23:31;;;;;;;5.30;2.13;;;-1.50;99.90;;;;;;5032194;28;20370;-71
2024/01/28 07:25:57;;;;;;;17.13;4.93;;;-1.50;99.90;;;;;;5032979;28;20033;-71
2024/01/28 07:28:23;;;;;;;7.00;3.28;;;-1.50;99.90;;;;;;5033740;28;20128;-75
2024/01/28 07:30:49;;;;;;;3.60;2.70;;;-1.50;99.90;;;;;;5030075;28;20457;-71
2024/01/28 07:33:17;;;;;;;9.43;6.50;;;-1.50;99.90;;;;;;5033790;28;20072;-71
2024/01/28 07:35:43;;;;;;;19.50;10.80;;;-1.50;99.90;;;;;;5032827;28;20060;-71
2024/01/28 07:38:09;;;;;;;22.58;13.27;;;-1.40;99.90;;;;;;5029023;28;20072;-71
2024/01/28 07:40:35;;;;;;;7.72;3.65;;;-1.40;99.90;;;;;;5028687;28;20569;-71
2024/01/28 07:43:01;;;;;;;7.53;3.63;;;-1.30;99.90;;;;;;5032843;28;20037;-71
2024/01/28 07:45:26;;;;;;;31.00;11.77;;;-1.30;99.90;;;;;;5032504;28;20052;-71
2024/01/28 07:47:52;;;;;;;17.30;3.72;;;-1.20;99.90;;;;;;5031815;28;20418;-71
2024/01/28 07:50:19;;;;;;;9.15;5.32;;;-1.20;99.90;;;;;;5032946;28;20142;-70
2024/01/28 07:52:45;;;;;;;17.40;4.93;;;-1.10;99.90;;;;;;5032755;28;20074;-71
2024/01/28 07:55:11;;;;;;;4.63;3.40;;;-1.10;99.90;;;;;;5033293;28;20029;-71
2024/01/28 07:57:37;;;;;;;10.40;3.33;;;-1.00;99.90;;;;;;5032365;28;20109;-71
2024/01/28 08:00:09;;;;;;;8.98;5.28;;;-0.90;99.90;;;;;;5033192;28;20029;-71
2024/01/28 08:02:35;;;;;;;12.13;5.53;;;-0.80;99.90;;;;;;5032070;28;20532;-71
2024/01/28 08:05:01;;;;;;;11.10;6.05;;;-0.80;99.90;;;;;;5031216;28;20113;-70
2024/01/28 08:07:27;;;;;;;7.80;4.45;;;-0.70;99.90;;;;;;5033206;28;20385;-70
2024/01/28 08:09:52;;;;;;;9.20;4.70;;;-0.60;99.90;;;;;;5031777;28;20029;-71
2024/01/28 08:12:18;;;;;;;8.55;4.53;;;-0.60;99.90;;;;;;5032573;28;20472;-71
2024/01/28 08:14:44;;;;;;;10.77;5.63;;;-0.50;99.90;;;;;;5031688;28;20434;-70
2024/01/28 08:17:10;;;;;;;10.05;4.05;;;-0.50;99.90;;;;;;5032711;28;20026;-71
2024/01/28 08:19:37;;;;;;;7.47;4.55;;;-0.40;99.90;;;;;;5027800;28;20505;-71
2024/01/28 08:22:04;;;;;;;6.10;3.50;;;-0.30;99.90;;;;;;5032404;28;20033;-70
2024/01/28 08:24:30;;;;;;;4.53;3.05;;;-0.30;99.90;;;;;;5030656;28;20025;-71
2024/01/28 08:26:56;;;;;;;7.72;4.70;;;-0.20;99.90;;;;;;5034048;28;20030;-71
2024/01/28 08:29:23;;;;;;;7.82;3.05;;;-0.20;99.90;;;;;;5033023;28;20021;-70
2024/01/28 08:31:49;;;;;;;10.40;3.35;;;-0.10;99.90;;;;;;5032376;28;20502;-70
2024/01/28 08:34:14;;;;;;;6.45;3.72;;;0.00;99.90;;;;;;5030665;28;20036;-71
2024/01/28 08:36:40;;;;;;;11.40;4.80;;;0.00;99.90;;;;;;5032279;28;20037;-71
2024/01/28 08:39:09;;;;;;;32.00;11.95;;;0.00;99.90;;;;;;5035693;28;20029;-71
2024/01/28 08:41:38;;;;;;;14.85;3.95;;;0.10;99.90;;;;;;5039061;28;20025;-71
2024/01/28 08:44:09;;;;;;;6.07;3.88;;;0.10;99.90;;;;;;5030164;28;20126;-71
2024/01/28 08:46:41;;;;;;;8.38;4.07;;;0.20;99.90;;;;;;5031973;28;20029;-71
2024/01/28 08:49:07;;;;;;;12.38;4.35;;;0.30;99.90;;;;;;5030362;28;20092;-71
2024/01/28 08:51:33;;;;;;;6.28;3.55;;;0.40;99.90;;;;;;5032381;28;20033;-73
2024/01/28 08:53:59;;;;;;;9.73;3.13;;;0.40;99.90;;;;;;5030937;28;20083;-71
2024/01/28 08:56:25;;;;;;;6.22;3.65;;;0.50;99.90;;;;;;5031863;28;20021;-71
2024/01/28 08:58:51;;;;;;;11.77;4.47;;;0.50;99.90;;;;;;5030921;28;20507;-71
2024/01/28 09:01:17;;;;;;;7.28;4.18;;;0.70;99.90;;;;;;5031793;28;20029;-71
2024/01/28 09:03:42;;;;;;;6.13;3.45;;;0.70;99.90;;;;;;5029288;28;20030;-71
2024/01/28 09:06:08;;;;;;;5.80;4.00;;;0.70;99.90;;;;;;5032014;28;20096;-71
2024/01/28 09:08:34;;;;;;;6.78;2.65;;;0.80;99.90;;;;;;5031113;28;20096;-71
2024/01/28 09:11:01;;;;;;;6.45;3.30;;;0.80;99.90;;;;;;5028900;28;20721;-71
2024/01/28 09:13:26;;;;;;;7.32;4.05;;;1.00;99.90;;;;;;5030775;28;20025;-71
2024/01/28 09:15:53;;;;;;;4.55;3.20;;;1.00;99.90;;;;;;5031084;28;20025;-71
2024/01/28 09:18:19;;;;;;;8.27;3.65;;;1.10;99.90;;;;;;5031707;28;20493;-70
2024/01/28 09:20:45;;;;;;;5.30;3.42;;;1.20;99.90;;;;;;5030571;28;20140;-71
2024/01/28 09:23:12;;;;;;;9.93;4.10;;;1.30;99.90;;;;;;5031384;28;20128;-71
2024/01/28 09:25:38;;;;;;;5.28;3.58;;;1.40;99.90;;;;;;5031012;28;20097;-71
2024/01/28 09:28:04;;;;;;;6.63;2.72;;;1.50;99.90;;;;;;5030841;28;20025;-69
2024/01/28 09:30:30;;;;;;;10.07;3.75;;;1.60;99.90;;;;;;5030667;28;20029;-69
2024/01/28 09:32:56;;;;;;;10.55;2.90;;;1.70;99.90;;;;;;5031168;28;20099;-70
2024/01/28 09:35:22;;;;;;;6.78;3.13;;;1.80;99.90;;;;;;5030569;28;20117;-70
2024/01/28 09:37:48;;;;;;;6.03;3.38;;;1.90;99.90;;;;;;5031238;28;20033;-70
2024/01/28 09:40:14;;;;;;;16.65;3.90;;;1.90;99.90;;;;;;5030328;28;20508;-69
2024/01/28 09:42:52;;;;;;;11.95;4.80;;;2.10;99.90;;;;;;5031013;28;20112;-69
2024/01/28 09:45:19;;;;;;;8.65;3.42;;;2.20;99.90;;;;;;5029668;28;20501;-70
2024/01/28 09:47:45;;;;;;;6.82;2.65;;;2.40;99.90;;;;;;5031252;28;20439;-70
2024/01/28 09:50:13;;;;;;;14.63;3.25;;;2.50;99.90;;;;;;5030565;28;20044;-70
2024/01/28 09:52:38;;;;;;;7.32;2.58;;;2.50;99.90;;;;;;5026643;28;20022;-70
2024/01/28 09:55:04;;;;;;;6.93;3.25;;;2.60;99.90;;;;;;5030819;28;20028;-70
2024/01/28 09:57:30;;;;;;;7.10;3.22;;;2.70;99.90;;;;;;5029815;28;20041;-70
2024/01/28 09:59:56;;;;;;;10.88;4.13;;;2.90;99.90;;;;;;5028689;28;20025;-71
2024/01/28 10:02:23;;;;;;;13.23;3.83;;;3.00;99.90;;;;;;5026387;28;20017;-70
2024/01/28 10:04:49;;;;;;;8.07;4.80;;;3.20;99.90;;;;;;5033229;28;20052;-70
2024/01/28 10:07:15;;;;;;;6.40;3.95;;;3.30;99.90;;;;;;5035276;28;20021;-70
2024/01/28 10:09:41;;;;;;;8.45;3.92;;;3.10;99.90;;;;;;5034783;28;20528;-70
2024/01/28 10:12:09;;;;;;;11.38;4.35;;;3.70;99.90;;;;;;5034563;28;20029;-70
2024/01/28 10:14:35;;;;;;;11.93;2.97;;;6.00;99.90;;;;;;5033538;28;20040;-70
2024/01/28 10:17:00;;;;;;;8.30;4.30;;;8.90;99.90;;;;;;5033624;28;20038;-70
2024/01/28 10:19:26;;;;;;;10.32;3.25;;;11.60;99.90;;;;;;5031530;28;20557;-70
2024/01/28 10:21:52;;;;;;;7.28;3.42;;;13.30;92.00;;;;;;5033609;28;20108;-70
2024/01/28 10:24:19;;;;;;;7.47;2.42;;;15.30;79.10;;;;;;5033433;28;20105;-72
2024/01/28 10:26:45;;;;;;;7.80;3.60;;;13.60;78.70;;;;;;5033010;28;20025;-71
2024/01/28 10:29:13;;;;;;;9.50;3.28;;;15.70;76.30;;;;;;5034235;28;20084;-72
2024/01/28 10:31:39;;;;;;;7.30;3.47;;;17.50;69.20;;;;;;5034505;28;20063;-71
2024/01/28 10:34:05;;;;;;;4.97;2.95;;;18.40;64.90;;;;;;5033769;28;20108;-69
2024/01/28 10:36:34;;;;;;;6.50;2.78;;;19.30;61.40;;;;;;5034985;28;20098;-68
2024/01/28 10:39:04;;;;;;;6.55;2.65;;;19.40;60.60;;;;;;5033824;28;20029;-69
2024/01/28 10:41:32;;;;;;;6.03;2.97;;;19.30;56.40;;;;;;5033137;28;20030;-69
2024/01/28 10:44:08;;;;;;;5.55;2.85;;;16.70;61.70;;;;;;5031497;28;20036;-68
2024/01/28 10:46:39;;;;;;;5.13;3.30;;;16.10;62.20;;;;;;5026795;28;20061;-69
2024/01/28 10:49:14;;;;;;;5.22;2.60;;;17.90;61.60;;;;;;5032444;28;20029;-70
2024/01/28 10:51:40;;;;;;;40.42;13.57;;;16.40;62.40;;;;;;5034128;28;20027;-70
2024/01/28 10:54:07;;;;;;;24.25;9.75;;;17.60;61.00;;;;;;5033528;28;20613;-70
2024/01/28 10:56:38;;;;;;;10.25;4.55;;;18.00;58.20;;;;;;5033410;28;20374;-69
2024/01/28 10:59:04;;;;;;;;;;;13.90;62.70;;;;;;5028444;28;20428;-70
2024/01/28 11:01:32;;;;;;;7.00;3.15;;;14.70;68.90;;;;;;5033079;28;20011;-70
2024/01/28 11:03:59;;;;;;;6.50;2.30;;;18.50;61.50;;;;;;5032012;28;20030;-70
2024/01/28 11:06:29;;;;;;;8.05;3.17;;;21.10;57.00;;;;;;5033469;28;20524;-70
2024/01/28 11:08:55;;;;;;;4.50;2.78;;;17.90;56.80;;;;;;5028004;28;20374;-70
2024/01/28 11:11:22;;;;;;;8.88;3.35;;;14.10;61.70;;;;;;5032292;28;20042;-70
2024/01/28 11:13:48;;;;;;;6.28;3.05;;;13.40;65.20;;;;;;5030792;28;20034;-70
2024/01/28 11:16:15;;;;;;;4.68;2.55;;;14.90;67.80;;;;;;5031663;28;20017;-69
2024/01/28 11:19:04;;;;;;;6.57;2.60;;;17.70;63.10;;;;;;5031290;28;20080;-70
2024/01/28 11:21:35;;;;;;;9.88;3.42;;;15.60;60.10;;;;;;5033570;28;20033;-70
2024/01/28 11:24:11;;;;;;;;;;;16.10;64.70;;;;;;5038358;28;20033;-69
2024/01/28 11:26:38;;;;;;;9.05;2.90;;;19.30;59.30;;;;;;5036551;28;20273;-70
2024/01/28 11:29:11;;;;;;;7.32;2.85;;;15.80;60.30;;;;;;5027568;28;20460;-70
2024/01/28 11:31:42;;;;;;;8.30;3.03;;;16.80;60.40;;;;;;5028871;28;20032;-70
2024/01/28 11:34:17;;;;;;;4.30;2.75;;;14.10;64.10;;;;;;5028409;28;20026;-70
2024/01/28 11:36:52;;;;;;;8.95;3.15;;;18.30;60.90;;;;;;5029661;28;20030;-70
2024/01/28 11:39:46;;;;;;;8.18;3.17;;;19.50;57.30;;;;;;5034277;28;20037;-70
2024/01/28 11:42:13;;;;;;;7.20;3.33;;;18.10;55.20;;;;;;5025363;28;20018;-71
2024/01/28 11:44:41;;;;;;;12.13;3.35;;;21.60;54.10;;;;;;5034430;28;20120;-70
2024/01/28 11:47:12;;;;;;;8.48;3.47;;;18.60;53.90;;;;;;5041275;28;20040;-70
2024/01/28 11:49:39;;;;;;;5.65;2.95;;;19.50;52.80;;;;;;5035253;28;20437;-70
2024/01/28 11:52:08;;;;;;;5.25;2.42;;;21.20;52.90;;;;;;5031919;28;20336;-70
2024/01/28 11:54:34;;;;;;;4.75;2.33;;;20.90;51.90;;;;;;5011172;28;20386;-70
2024/01/28 11:57:00;;;;;;;5.78;2.42;;;18.90;52.30;;;;;;5016169;28;20055;-70
2024/01/28 11:59:26;;;;;;;4.38;2.65;;;16.30;57.10;;;;;;5037225;28;20029;-70
2024/01/28 12:01:52;;;;;;;4.32;2.25;;;16.30;58.00;;;;;;5032725;28;20104;-71
2024/01/28 12:04:20;;;;;;;6.82;3.15;;;15.20;58.40;;;;;;5038656;28;20029;-73
2024/01/28 12:06:46;;;;;;;8.45;2.88;;;14.20;61.30;;;;;;5035646;28;20026;-73
2024/01/28 12:09:12;;;;;;;5.57;2.35;;;13.90;63.00;;;;;;5035127;28;20032;-71
2024/01/28 12:11:37;;;;;;;15.32;5.18;;;15.60;63.10;;;;;;5040481;28;20025;-72
2024/01/28 12:14:03;;;;;;;37.90;15.43;;;13.00;64.10;;;;;;5033259;28;20033;-71
2024/01/28 12:16:34;;;;;;;9.23;3.47;;;14.00;66.30;;;;;;5030114;28;20036;-71
2024/01/28 12:19:00;;;;;;;15.32;3.03;;;16.80;65.50;;;;;;5030262;28;20473;-72
2024/01/28 12:21:27;;;;;;;13.52;3.13;;;20.10;62.60;;;;;;5026531;28;20076;-70
2024/01/28 12:23:59;;;;;;;7.50;3.15;;;14.00;63.50;;;;;;5030752;28;20540;-70
2024/01/28 12:26:26;;;;;;;6.28;3.13;;;15.20;73.80;;;;;;5026787;28;20041;-71
2024/01/28 12:28:53;;;;;;;7.65;2.70;;;17.20;61.90;;;;;;5030845;28;20021;-71
2024/01/28 12:31:20;;;;;;;9.70;3.95;;;17.30;59.30;;;;;;5027166;28;20034;-71
2024/01/28 12:33:47;;;;;;;8.55;3.10;;;15.90;58.60;;;;;;5030880;28;20033;-71
2024/01/28 12:36:13;;;;;;;7.40;2.90;;;16.10;60.20;;;;;;5026861;28;20057;-71
2024/01/28 12:38:39;;;;;;;9.98;3.63;;;16.40;61.70;;;;;;5030994;28;20061;-72
2024/01/28 12:41:06;;;;;;;7.47;3.03;;;17.60;60.20;;;;;;5031537;28;20025;-71
2024/01/28 12:43:32;;;;;;;6.40;2.92;;;17.10;58.10;;;;;;5036485;28;20094;-71
2024/01/28 12:45:58;;;;;;;10.10;2.97;;;18.00;59.30;;;;;;5030155;28;20466;-72